Time;durP1;ratioP1;P1;durP2;ratioP2;P2;SDS_P1;SDS_P2;PMS_P1;PMS_P2;Temp;Humidity;BMP_temperature;BMP_pressure;BME280_temperature;BME280_humidity;BME280_pressure;Samples;Min_cycle;Max_cycle;Signal;HPM_P1;HPM_P2
2022/07/12 00:01:04;;;;;;;8.18;2.10;;;;;;;;;;4992964;28;20030;-79
2022/07/12 00:03:30;;;;;;;5.78;2.35;;;;;;;;;;4992819;28;20097;-79
2022/07/12 00:05:57;;;;;;;5.70;2.00;;;;;;;;;;4992702;28;20042;-80
2022/07/12 00:08:23;;;;;;;5.30;2.20;;;;;;;;;;4992502;28;20037;-79
2022/07/12 00:10:48;;;;;;;4.72;2.03;;;;;;;;;;4992328;28;20470;-80
2022/07/12 00:13:15;;;;;;;3.78;2.10;;;;;;;;;;4975148;28;20030;-79
2022/07/12 00:15:40;;;;;;;4.20;2.10;;;;;;;;;;4992401;28;20053;-79
2022/07/12 00:18:05;;;;;;;3.08;1.98;;;;;;;;;;4992431;28;20471;-79
2022/07/12 00:20:31;;;;;;;5.05;2.00;;;;;;;;;;4992474;28;20063;-79
2022/07/12 00:22:56;;;;;;;5.18;2.00;;;;;;;;;;4992330;28;20037;-79
2022/07/12 00:25:22;;;;;;;4.22;2.10;;;;;;;;;;4992193;28;20029;-79
2022/07/12 00:27:47;;;;;;;4.88;2.20;;;;;;;;;;4991995;28;20030;-79
2022/07/12 00:30:13;;;;;;;5.68;2.20;;;;;;;;;;4991842;28;20410;-79
2022/07/12 00:32:38;;;;;;;4.05;2.20;;;;;;;;;;4974582;28;20030;-80
2022/07/12 00:35:05;;;;;;;5.30;2.00;;;;;;;;;;4992321;28;20030;-79
2022/07/12 00:37:32;;;;;;;5.13;2.15;;;;;;;;;;4992091;28;20057;-79
2022/07/12 00:39:58;;;;;;;7.43;2.10;;;;;;;;;;4991768;28;20022;-79
2022/07/12 00:42:25;;;;;;;4.68;1.90;;;;;;;;;;4992081;28;20141;-79
2022/07/12 00:44:51;;;;;;;5.50;2.17;;;;;;;;;;4991941;28;20018;-79
2022/07/12 00:47:36;;;;;;;6.00;2.20;;;;;;;;;;4991907;28;20033;-79
2022/07/12 00:50:06;;;;;;;3.22;1.98;;;;;;;;;;4974229;28;20031;-79
2022/07/12 00:52:32;;;;;;;5.03;1.95;;;;;;;;;;4991626;28;20026;-79
2022/07/12 00:54:57;;;;;;;4.70;2.20;;;;;;;;;;4991726;28;20442;-79
2022/07/12 00:57:23;;;;;;;6.25;2.00;;;;;;;;;;4991757;28;20030;-79
2022/07/12 00:59:48;;;;;;;5.55;2.10;;;;;;;;;;4991511;28;20030;-79
2022/07/12 01:02:16;;;;;;;6.22;2.10;;;;;;;;;;4991567;28;20034;-79
2022/07/12 01:04:44;;;;;;;6.25;1.85;;;;;;;;;;4991506;28;20023;-79
2022/07/12 01:07:09;;;;;;;4.28;2.13;;;;;;;;;;4973837;28;20030;-79
2022/07/12 01:09:35;;;;;;;6.78;1.80;;;;;;;;;;4991122;28;20027;-80
2022/07/12 01:12:01;;;;;;;5.45;1.90;;;;;;;;;;4991500;28;20618;-79
2022/07/12 01:14:28;;;;;;;4.55;2.20;;;;;;;;;;4991488;28;20030;-79
2022/07/12 01:16:53;;;;;;;5.50;2.00;;;;;;;;;;4991524;28;20022;-80
2022/07/12 01:19:20;;;;;;;5.45;2.00;;;;;;;;;;4991153;28;20030;-79
2022/07/12 01:21:48;;;;;;;4.43;2.17;;;;;;;;;;4990898;28;20030;-79
2022/07/12 01:24:18;;;;;;;5.10;2.22;;;;;;;;;;4991185;28;20023;-79
2022/07/12 01:26:44;;;;;;;5.63;2.03;;;;;;;;;;4991099;28;20023;-79
2022/07/12 01:29:10;;;;;;;8.02;2.13;;;;;;;;;;4990984;28;20030;-79
2022/07/12 01:31:36;;;;;;;6.90;2.00;;;;;;;;;;4991079;28;20033;-79
2022/07/12 01:34:03;;;;;;;5.35;1.83;;;;;;;;;;4991061;28;20038;-79
2022/07/12 01:36:30;;;;;;;3.53;1.90;;;;;;;;;;4991108;28;20054;-79
2022/07/12 01:38:55;;;;;;;4.47;2.10;;;;;;;;;;4990565;28;20049;-79
2022/07/12 01:41:23;;;;;;;4.05;2.10;;;;;;;;;;4990982;28;20034;-79
2022/07/12 01:43:49;;;;;;;5.60;2.20;;;;;;;;;;4990832;28;20034;-79
2022/07/12 01:46:14;;;;;;;3.88;1.73;;;;;;;;;;4991022;28;20406;-79
2022/07/12 01:48:40;;;;;;;3.90;1.92;;;;;;;;;;4990732;28;20034;-79
2022/07/12 01:51:05;;;;;;;5.22;1.80;;;;;;;;;;4990014;28;20026;-79
2022/07/12 01:53:31;;;;;;;4.75;1.95;;;;;;;;;;4990770;28;20561;-79
2022/07/12 01:55:56;;;;;;;7.22;1.80;;;;;;;;;;4990758;28;20026;-79
2022/07/12 01:58:24;;;;;;;4.18;2.00;;;;;;;;;;4990457;28;20046;-80
2022/07/12 02:00:53;;;;;;;7.43;2.10;;;;;;;;;;4990863;28;20034;-78
2022/07/12 02:03:18;;;;;;;3.75;1.80;;;;;;;;;;4990671;28;20030;-79
2022/07/12 02:05:44;;;;;;;5.80;1.80;;;;;;;;;;4990765;28;20115;-79
2022/07/12 02:08:10;;;;;;;3.63;1.77;;;;;;;;;;4990518;28;20034;-79
2022/07/12 02:10:35;;;;;;;6.70;2.10;;;;;;;;;;4990552;28;20030;-79
2022/07/12 02:13:05;;;;;;;4.55;2.10;;;;;;;;;;4990627;28;20082;-77
2022/07/12 02:15:31;;;;;;;6.37;2.10;;;;;;;;;;4990593;28;20026;-77
2022/07/12 02:17:56;;;;;;;5.40;1.98;;;;;;;;;;4990586;28;20118;-80
2022/07/12 02:20:22;;;;;;;8.23;2.25;;;;;;;;;;4990613;28;20022;-80
2022/07/12 02:22:47;;;;;;;5.22;1.92;;;;;;;;;;4990480;28;20027;-80
2022/07/12 02:25:13;;;;;;;5.60;2.20;;;;;;;;;;4990710;28;20419;-80
2022/07/12 02:27:40;;;;;;;7.07;1.90;;;;;;;;;;4990598;28;20057;-80
2022/07/12 02:30:07;;;;;;;6.47;2.30;;;;;;;;;;4990129;28;20023;-80
2022/07/12 02:32:32;;;;;;;5.00;2.00;;;;;;;;;;4990374;28;20034;-79
2022/07/12 02:35:00;;;;;;;6.18;2.00;;;;;;;;;;4990664;28;20031;-79
2022/07/12 02:37:26;;;;;;;6.70;2.10;;;;;;;;;;4990333;28;20031;-79
2022/07/12 02:40:52;;;;;;;4.40;2.22;;;;;;;;;;4990406;28;20026;-79
2022/07/12 02:42:37;;;;;;;3.97;2.28;;;;;;;;;;4990392;28;20035;-79
2022/07/12 02:45:03;;;;;;;4.28;2.00;;;;;;;;;;4990394;28;20499;-78
2022/07/12 02:47:28;;;;;;;4.28;2.20;;;;;;;;;;4990205;28;20018;-79
2022/07/12 02:49:54;;;;;;;4.78;2.22;;;;;;;;;;4990105;28;20173;-79
2022/07/12 02:52:19;;;;;;;5.22;2.40;;;;;;;;;;4990195;28;20030;-80
2022/07/12 02:54:44;;;;;;;4.85;2.20;;;;;;;;;;4990462;28;20088;-79
2022/07/12 02:57:10;;;;;;;3.95;2.30;;;;;;;;;;4990258;28;20057;-79
2022/07/12 02:59:35;;;;;;;3.53;2.03;;;;;;;;;;4990113;28;20081;-79
2022/07/12 03:02:00;;;;;;;7.50;2.30;;;;;;;;;;4990628;28;20390;-78
2022/07/12 03:04:26;;;;;;;6.65;2.40;;;;;;;;;;4993867;28;20045;-78
2022/07/12 03:06:51;;;;;;;3.85;2.30;;;;;;;;;;4993670;28;20026;-79
2022/07/12 03:09:18;;;;;;;4.53;2.50;;;;;;;;;;4993569;28;20451;-79
2022/07/12 03:11:43;;;;;;;5.80;2.33;;;;;;;;;;4993792;28;20035;-79
2022/07/12 03:14:09;;;;;;;5.93;2.40;;;;;;;;;;4993834;28;20022;-80
2022/07/12 03:16:34;;;;;;;7.78;2.47;;;;;;;;;;4993687;28;20117;-79
2022/07/12 03:18:59;;;;;;;4.32;2.30;;;;;;;;;;4993529;28;20029;-79
2022/07/12 03:21:25;;;;;;;4.07;2.20;;;;;;;;;;4993497;28;20034;-79
2022/07/12 03:23:50;;;;;;;5.25;2.50;;;;;;;;;;4993296;28;20030;-79
2022/07/12 03:26:15;;;;;;;5.25;2.30;;;;;;;;;;4976182;28;20058;-79
2022/07/12 03:28:41;;;;;;;6.15;2.55;;;;;;;;;;4993138;28;20026;-79
2022/07/12 03:31:06;;;;;;;8.55;2.60;;;;;;;;;;4993467;28;20030;-79
2022/07/12 03:33:32;;;;;;;4.18;2.40;;;;;;;;;;4993319;28;20494;-79
2022/07/12 03:35:57;;;;;;;5.57;2.38;;;;;;;;;;4993300;28;20022;-79
2022/07/12 03:38:22;;;;;;;5.00;2.20;;;;;;;;;;4993174;28;20093;-79
2022/07/12 03:40:48;;;;;;;5.63;2.40;;;;;;;;;;4992812;28;20034;-79
2022/07/12 03:43:13;;;;;;;6.65;2.30;;;;;;;;;;4975607;28;20443;-79
2022/07/12 03:45:42;;;;;;;7.93;2.50;;;;;;;;;;4993025;28;20038;-79
2022/07/12 03:48:07;;;;;;;5.13;2.30;;;;;;;;;;4993058;28;20022;-79
2022/07/12 03:50:33;;;;;;;4.32;2.03;;;;;;;;;;4992984;28;20030;-79
2022/07/12 03:52:58;;;;;;;3.38;2.20;;;;;;;;;;4993002;28;20035;-79
2022/07/12 03:55:24;;;;;;;4.40;2.40;;;;;;;;;;4993198;28;20031;-79
2022/07/12 03:57:49;;;;;;;5.78;2.40;;;;;;;;;;4992522;28;20446;-79
2022/07/12 04:00:14;;;;;;;4.78;2.42;;;;;;;;;;4992678;28;20097;-79
2022/07/12 04:02:41;;;;;;;4.78;2.25;;;;;;;;;;4992636;28;20018;-77
2022/07/12 04:05:08;;;;;;;4.65;2.40;;;;;;;;;;4992857;28;20026;-79
2022/07/12 04:07:34;;;;;;;5.72;2.63;;;;;;;;;;4992653;28;20010;-79
2022/07/12 04:09:59;;;;;;;6.75;2.40;;;;;;;;;;4992392;28;20026;-79
2022/07/12 04:12:24;;;;;;;5.15;2.47;;;;;;;;;;4975254;28;20053;-79
2022/07/12 04:14:50;;;;;;;7.55;2.42;;;;;;;;;;4991702;28;20030;-79
2022/07/12 04:17:15;;;;;;;5.45;2.20;;;;;;;;;;4992465;28;20025;-79
2022/07/12 04:19:41;;;;;;;4.95;2.15;;;;;;;;;;4992409;28;20955;-79
2022/07/12 04:22:06;;;;;;;8.40;2.75;;;;;;;;;;4992363;28;20487;-79
2022/07/12 04:24:32;;;;;;;6.32;2.70;;;;;;;;;;4974958;28;20030;-79
2022/07/12 04:26:58;;;;;;;4.22;2.40;;;;;;;;;;4992369;28;20037;-79
2022/07/12 04:29:23;;;;;;;4.82;2.55;;;;;;;;;;4992165;28;20038;-79
2022/07/12 04:31:49;;;;;;;5.97;2.53;;;;;;;;;;4992103;28;20026;-79
2022/07/12 04:34:16;;;;;;;5.45;2.50;;;;;;;;;;4992322;28;20036;-79
2022/07/12 04:36:45;;;;;;;6.57;2.20;;;;;;;;;;4992028;28;20031;-79
2022/07/12 04:39:11;;;;;;;5.00;2.30;;;;;;;;;;4991843;28;20495;-79
2022/07/12 04:41:37;;;;;;;4.45;2.28;;;;;;;;;;4992013;28;20101;-79
2022/07/12 04:44:04;;;;;;;5.50;2.60;;;;;;;;;;4992144;28;20031;-79
2022/07/12 04:46:29;;;;;;;5.43;2.20;;;;;;;;;;4992078;28;20038;-79
2022/07/12 04:48:55;;;;;;;6.63;2.35;;;;;;;;;;4991858;28;20030;-80
2022/07/12 04:51:20;;;;;;;8.77;2.55;;;;;;;;;;4991623;28;20261;-79
2022/07/12 04:53:46;;;;;;;5.80;2.47;;;;;;;;;;4991519;28;20030;-79
2022/07/12 04:56:11;;;;;;;5.97;2.20;;;;;;;;;;4991577;28;20026;-79
2022/07/12 04:58:37;;;;;;;5.72;2.38;;;;;;;;;;4974060;28;20046;-80
2022/07/12 05:01:02;;;;;;;8.63;2.40;;;;;;;;;;4991658;28;20037;-79
2022/07/12 05:03:29;;;;;;;5.75;2.28;;;;;;;;;;4991824;28;20041;-79
2022/07/12 05:05:54;;;;;;;9.32;2.50;;;;;;;;;;4991532;28;20022;-79
2022/07/12 05:08:20;;;;;;;8.55;2.20;;;;;;;;;;4991247;28;20033;-79
2022/07/12 05:10:45;;;;;;;8.43;2.40;;;;;;;;;;4991124;28;20026;-79
2022/07/12 05:13:11;;;;;;;5.28;2.50;;;;;;;;;;4991457;28;20518;-84
2022/07/12 05:15:36;;;;;;;7.75;2.35;;;;;;;;;;4974269;28;20041;-87
2022/07/12 05:18:01;;;;;;;37.25;3.05;;;;;;;;;;4992016;28;20026;-90
2022/07/12 05:20:27;;;;;;;5.97;2.58;;;;;;;;;;4993268;28;20117;-90
2022/07/12 05:22:54;;;;;;;20.75;2.70;;;;;;;;;;4992205;28;20022;-92
2022/07/12 05:25:20;;;;;;;8.88;2.75;;;;;;;;;;4991611;28;20394;-79
2022/07/12 05:27:45;;;;;;;15.52;2.92;;;;;;;;;;4991245;28;20026;-84
2022/07/12 05:30:11;;;;;;;10.63;2.50;;;;;;;;;;4991583;28;20033;-88
2022/07/12 05:32:36;;;;;;;7.95;2.65;;;;;;;;;;4991255;28;20018;-84
2022/07/12 05:35:01;;;;;;;6.70;2.45;;;;;;;;;;4991338;28;20034;-80
2022/07/12 05:37:27;;;;;;;9.73;2.60;;;;;;;;;;4991130;28;20113;-80
2022/07/12 05:39:52;;;;;;;7.28;2.60;;;;;;;;;;4990898;28;20391;-81
2022/07/12 05:42:18;;;;;;;5.57;2.72;;;;;;;;;;4991033;28;20104;-78
2022/07/12 05:44:44;;;;;;;6.95;2.63;;;;;;;;;;4990867;28;20441;-85
2022/07/12 05:47:09;;;;;;;6.35;2.50;;;;;;;;;;4990925;28;20033;-82
2022/07/12 05:49:35;;;;;;;11.02;2.70;;;;;;;;;;4990961;28;20084;-85
2022/07/12 05:54:44;;;;;;;19.17;3.40;;;;;;;;;;4991203;28;20089;-86
2022/07/12 05:57:11;;;;;;;12.93;3.20;;;;;;;;;;4990921;28;20054;-90
2022/07/12 05:59:36;;;;;;;9.15;2.92;;;;;;;;;;4991554;28;20034;-85
2022/07/12 06:02:02;;;;;;;9.38;2.60;;;;;;;;;;4990755;28;20042;-82
2022/07/12 06:04:28;;;;;;;9.50;2.97;;;;;;;;;;4990919;28;20093;-83
2022/07/12 06:06:53;;;;;;;6.65;2.53;;;;;;;;;;4990825;28;20030;-86
2022/07/12 06:09:18;;;;;;;9.63;2.60;;;;;;;;;;4990839;28;20123;-89
2022/07/12 06:11:44;;;;;;;9.65;2.70;;;;;;;;;;4991033;28;20031;-93
2022/07/12 06:14:09;;;;;;;10.35;3.20;;;;;;;;;;4990711;28;20025;-86
2022/07/12 06:16:35;;;;;;;8.23;2.70;;;;;;;;;;4990781;28;20109;-86
2022/07/12 06:19:00;;;;;;;15.63;2.78;;;;;;;;;;4990485;28;20027;-90
2022/07/12 06:21:25;;;;;;;8.48;2.50;;;;;;;;;;4990865;28;20026;-87
2022/07/12 06:23:52;;;;;;;7.35;2.72;;;;;;;;;;4990650;28;20022;-82
2022/07/12 06:26:17;;;;;;;9.38;2.60;;;;;;;;;;4989305;28;20031;-77
2022/07/12 06:28:43;;;;;;;7.63;2.50;;;;;;;;;;4990584;28;20030;-83
2022/07/12 06:31:08;;;;;;;6.88;2.38;;;;;;;;;;4990280;28;20034;-79
2022/07/12 06:33:34;;;;;;;9.68;2.20;;;;;;;;;;4990677;28;20034;-80
2022/07/12 06:35:59;;;;;;;14.70;2.50;;;;;;;;;;4988532;28;20030;-88
2022/07/12 06:38:25;;;;;;;11.85;2.58;;;;;;;;;;4991507;28;20109;-82
2022/07/12 06:40:50;;;;;;;7.78;2.40;;;;;;;;;;4993829;28;20030;-92
2022/07/12 06:43:16;;;;;;;7.35;2.30;;;;;;;;;;4993581;28;20050;-80
2022/07/12 06:45:41;;;;;;;3.45;2.17;;;;;;;;;;4994091;28;20022;-78
2022/07/12 06:48:06;;;;;;;8.48;2.30;;;;;;;;;;4993980;28;20027;-79
2022/07/12 06:50:32;;;;;;;4.78;2.30;;;;;;;;;;4993893;28;20041;-87
2022/07/12 06:52:58;;;;;;;5.80;2.17;;;;;;;;;;4995633;28;20550;-92
2022/07/12 06:55:24;;;;;;;5.95;2.30;;;;;;;;;;4997608;28;20037;-86
2022/07/12 06:57:49;;;;;;;6.90;2.15;;;;;;;;;;4995376;28;20049;-88
2022/07/12 07:00:14;;;;;;;5.32;2.20;;;;;;;;;;4995120;28;20083;-88
2022/07/12 07:02:40;;;;;;;5.15;2.13;;;;;;;;;;4994736;28;20054;-89
2022/07/12 07:05:06;;;;;;;5.18;2.10;;;;;;;;;;4993973;28;20026;-87
2022/07/12 07:07:33;;;;;;;5.15;2.13;;;;;;;;;;4993929;28;20467;-84
2022/07/12 07:09:58;;;;;;;4.18;2.22;;;;;;;;;;4994116;28;20030;-82
2022/07/12 07:12:24;;;;;;;4.00;2.05;;;;;;;;;;4993663;28;20085;-78
2022/07/12 07:14:49;;;;;;;4.18;2.10;;;;;;;;;;4993405;28;20108;-80
2022/07/12 07:17:19;;;;;;;4.95;2.00;;;;;;;;;;4993714;28;20026;-76
2022/07/12 07:19:45;;;;;;;4.13;2.25;;;;;;;;;;4993567;28;20060;-83
2022/07/12 07:22:11;;;;;;;7.22;2.03;;;;;;;;;;4993140;28;20045;-83
2022/07/12 07:24:37;;;;;;;5.35;2.00;;;;;;;;;;4993562;28;20042;-86
2022/07/12 07:27:03;;;;;;;8.48;2.17;;;;;;;;;;4993402;28;20030;-83
2022/07/12 07:32:12;;;;;;;4.43;2.05;;;;;;;;;;4993043;28;20105;-78
2022/07/12 07:34:38;;;;;;;6.53;1.80;;;;;;;;;;4993544;28;20030;-78
2022/07/12 07:37:04;;;;;;;6.68;1.83;;;;;;;;;;4993263;28;20089;-82
2022/07/12 07:39:29;;;;;;;4.35;2.00;;;;;;;;;;4993399;28;20106;-77
2022/07/12 07:41:55;;;;;;;3.45;1.85;;;;;;;;;;4993174;28;20109;-82
2022/07/12 07:44:20;;;;;;;7.65;1.90;;;;;;;;;;4995633;28;20033;-79
2022/07/12 07:46:46;;;;;;;12.05;1.90;;;;;;;;;;4989379;28;20031;-75
2022/07/12 07:49:11;;;;;;;5.95;1.70;;;;;;;;;;4959857;28;20033;-75
2022/07/12 07:51:37;;;;;;;4.80;1.60;;;;;;;;;;4980052;28;20082;-75
2022/07/12 07:54:02;;;;;;;4.75;1.58;;;;;;;;;;4993719;28;20030;-74
2022/07/12 07:56:28;;;;;;;7.30;1.90;;;;;;;;;;4995726;28;20632;-75
2022/07/12 07:58:54;;;;;;;5.18;1.70;;;;;;;;;;4993640;28;20042;-75
2022/07/12 08:01:19;;;;;;;3.92;1.63;;;;;;;;;;4992665;28;20073;-75
2022/07/12 08:03:44;;;;;;;5.38;1.55;;;;;;;;;;4991449;28;20022;-75
2022/07/12 08:06:10;;;;;;;10.55;1.77;;;;;;;;;;4986301;28;20498;-75
2022/07/12 08:08:35;;;;;;;7.93;1.50;;;;;;;;;;4993442;28;20073;-74
2022/07/12 08:11:01;;;;;;;6.35;1.60;;;;;;;;;;4995213;28;20034;-77
2022/07/12 08:13:26;;;;;;;6.63;1.50;;;;;;;;;;4976540;28;20117;-75
2022/07/12 08:15:52;;;;;;;6.70;1.80;;;;;;;;;;4992803;28;20026;-73
2022/07/12 08:18:17;;;;;;;4.25;1.80;;;;;;;;;;4992282;28;20177;-74
2022/07/12 08:20:42;;;;;;;3.92;1.50;;;;;;;;;;4991475;28;20042;-74
2022/07/12 08:23:09;;;;;;;5.53;1.80;;;;;;;;;;4995288;28;20515;-77
2022/07/12 08:25:34;;;;;;;4.03;1.42;;;;;;;;;;4992654;28;20026;-77
2022/07/12 08:28:00;;;;;;;3.10;1.70;;;;;;;;;;4992018;28;20022;-78
2022/07/12 08:30:26;;;;;;;4.57;1.77;;;;;;;;;;4996714;28;20042;-74
2022/07/12 08:32:51;;;;;;;4.35;1.70;;;;;;;;;;4992622;28;20053;-74
2022/07/12 08:35:17;;;;;;;5.03;1.67;;;;;;;;;;4994259;28;20668;-74
2022/07/12 08:37:42;;;;;;;5.95;1.70;;;;;;;;;;4993076;28;20041;-76
2022/07/12 08:40:08;;;;;;;5.57;1.60;;;;;;;;;;4995567;28;20372;-76
2022/07/12 08:42:34;;;;;;;4.50;1.67;;;;;;;;;;4974686;28;20027;-74
2022/07/12 08:45:00;;;;;;;6.60;1.70;;;;;;;;;;4991956;28;20383;-73
2022/07/12 08:47:26;;;;;;;4.68;1.67;;;;;;;;;;4992852;28;20033;-73
2022/07/12 08:50:10;;;;;;;3.72;1.77;;;;;;;;;;4991810;28;20026;-74
2022/07/12 08:52:40;;;;;;;5.13;1.92;;;;;;;;;;4991490;28;20064;-74
2022/07/12 08:55:20;;;;;;;3.20;1.63;;;;;;;;;;4995203;28;20031;-73
2022/07/12 08:57:46;;;;;;;4.80;1.60;;;;;;;;;;4991297;28;20081;-73
2022/07/12 09:00:12;;;;;;;5.00;1.60;;;;;;;;;;4991216;28;20415;-73
2022/07/12 09:02:55;;;;;;;6.57;1.90;;;;;;;;;;4991932;28;20026;-74
2022/07/12 09:05:24;;;;;;;7.90;2.00;;;;;;;;;;4996177;28;20026;-74
2022/07/12 09:07:50;;;;;;;6.10;1.77;;;;;;;;;;4993808;28;20054;-73
2022/07/12 09:10:16;;;;;;;3.55;1.65;;;;;;;;;;5000048;28;20034;-73
2022/07/12 09:12:43;;;;;;;3.47;1.70;;;;;;;;;;4994496;28;20394;-73
2022/07/12 09:15:21;;;;;;;5.75;1.92;;;;;;;;;;4994612;28;20042;-74
2022/07/12 09:18:01;;;;;;;4.82;1.80;;;;;;;;;;4991344;28;20026;-73
2022/07/12 09:20:33;;;;;;;4.38;1.60;;;;;;;;;;4991258;28;20520;-74
2022/07/12 09:23:04;;;;;;;3.22;1.75;;;;;;;;;;4973394;28;20125;-76
2022/07/12 09:25:32;;;;;;;7.20;1.55;;;;;;;;;;4995043;28;20312;-74
2022/07/12 09:27:59;;;;;;;4.80;1.80;;;;;;;;;;4997292;28;20034;-73
2022/07/12 09:30:27;;;;;;;3.55;1.58;;;;;;;;;;5000849;28;20034;-75
2022/07/12 09:36:15;;;;;;;3.78;1.80;;;;;;;;;;4996955;28;20057;-74
2022/07/12 09:38:40;;;;;;;3.45;1.70;;;;;;;;;;4993100;28;20113;-77
2022/07/12 09:41:07;;;;;;;3.20;1.70;;;;;;;;;;4993693;28;20065;-80
2022/07/12 09:43:33;;;;;;;2.88;1.65;;;;;;;;;;4993023;28;20275;-76
2022/07/12 09:46:00;;;;;;;5.00;1.90;;;;;;;;;;4994108;28;20037;-76
2022/07/12 09:48:28;;;;;;;4.20;1.73;;;;;;;;;;4989334;28;20033;-75
2022/07/12 09:50:56;;;;;;;3.25;1.60;;;;;;;;;;4988833;28;20042;-77
2022/07/12 09:53:33;;;;;;;4.20;1.90;;;;;;;;;;4989162;28;20113;-76
2022/07/12 09:56:05;;;;;;;5.15;1.73;;;;;;;;;;4990545;28;20510;-76
2022/07/12 09:58:38;;;;;;;5.70;1.85;;;;;;;;;;4992723;28;20050;-84
2022/07/12 10:01:06;;;;;;;5.55;2.30;;;;;;;;;;4995516;28;20034;-77
2022/07/12 10:03:34;;;;;;;5.45;2.00;;;;;;;;;;4991739;28;20027;-75
2022/07/12 10:06:02;;;;;;;6.55;1.92;;;;;;;;;;4990706;28;20137;-79
2022/07/12 10:08:28;;;;;;;5.72;1.90;;;;;;;;;;4990653;28;20130;-78
2022/07/12 10:10:54;;;;;;;4.63;1.80;;;;;;;;;;4990522;28;20113;-79
2022/07/12 10:13:20;;;;;;;2.78;1.70;;;;;;;;;;4993242;28;20105;-77
2022/07/12 10:15:48;;;;;;;3.15;1.65;;;;;;;;;;4994781;28;20026;-81
2022/07/12 10:18:21;;;;;;;4.05;1.70;;;;;;;;;;4994866;28;20018;-81
2022/07/12 10:20:48;;;;;;;4.90;2.00;;;;;;;;;;4994577;28;20026;-82
2022/07/12 10:23:26;;;;;;;5.43;2.10;;;;;;;;;;4994184;28;20042;-81
2022/07/12 10:25:51;;;;;;;3.17;1.80;;;;;;;;;;4994511;28;20026;-81
2022/07/12 10:28:17;;;;;;;3.85;2.05;;;;;;;;;;4994446;28;20394;-82
2022/07/12 10:30:47;;;;;;;3.42;1.92;;;;;;;;;;4994492;28;20463;-81
2022/07/12 10:33:21;;;;;;;4.47;1.80;;;;;;;;;;4994069;28;20030;-75
2022/07/12 10:36:00;;;;;;;7.22;2.30;;;;;;;;;;4994343;28;20106;-78
2022/07/12 10:38:25;;;;;;;3.13;1.90;;;;;;;;;;4996964;28;20084;-80
2022/07/12 10:40:52;;;;;;;3.67;2.10;;;;;;;;;;4994954;28;20022;-80
2022/07/12 10:43:19;;;;;;;4.15;2.08;;;;;;;;;;4993873;28;20027;-80
2022/07/12 10:45:47;;;;;;;4.70;2.08;;;;;;;;;;4994344;28;20018;-79
2022/07/12 10:48:12;;;;;;;3.88;1.88;;;;;;;;;;4994265;28;20055;-79
2022/07/12 10:50:41;;;;;;;5.75;2.00;;;;;;;;;;4994025;28;20483;-77
2022/07/12 10:53:18;;;;;;;4.63;1.85;;;;;;;;;;4993749;28;20034;-77
2022/07/12 10:56:04;;;;;;;3.92;2.00;;;;;;;;;;4994104;28;20018;-78
2022/07/12 10:58:41;;;;;;;5.38;2.10;;;;;;;;;;4983068;28;20046;-78
2022/07/12 11:01:24;;;;;;;5.57;1.92;;;;;;;;;;4996045;28;20037;-76
2022/07/12 11:03:56;;;;;;;5.32;1.77;;;;;;;;;;4993864;28;20710;-76
2022/07/12 11:06:24;;;;;;;4.15;2.10;;;;;;;;;;4992790;28;20376;-81
2022/07/12 11:08:54;;;;;;;4.88;2.00;;;;;;;;;;4976003;28;20061;-80
2022/07/12 11:11:21;;;;;;;4.95;2.20;;;;;;;;;;4993544;28;20069;-77
2022/07/12 11:13:46;;;;;;;5.60;2.10;;;;;;;;;;4993186;28;20056;-77
2022/07/12 11:16:12;;;;;;;6.05;2.00;;;;;;;;;;4993615;28;20616;-76
2022/07/12 11:18:38;;;;;;;4.05;1.90;;;;;;;;;;4993524;28;20033;-79
2022/07/12 11:21:05;;;;;;;6.03;2.10;;;;;;;;;;4993517;28;20023;-82
2022/07/12 11:23:31;;;;;;;5.03;1.98;;;;;;;;;;4992735;28;20053;-81
2022/07/12 11:26:01;;;;;;;3.58;1.88;;;;;;;;;;4993599;28;20426;-85
2022/07/12 11:28:27;;;;;;;;;;;;;;;;;;4976681;28;20683;-78
2022/07/12 11:30:54;;;;;;;5.20;2.00;;;;;;;;;;4993210;28;19914;-77
2022/07/12 11:33:29;;;;;;;3.60;2.10;;;;;;;;;;4992525;28;20030;-78
2022/07/12 11:35:55;;;;;;;5.57;2.20;;;;;;;;;;4995169;28;20109;-77
2022/07/12 11:38:25;;;;;;;7.88;2.10;;;;;;;;;;4990466;28;20033;-76
2022/07/12 11:41:02;;;;;;;5.43;2.13;;;;;;;;;;4993635;28;20019;-77
2022/07/12 11:43:28;;;;;;;4.32;2.03;;;;;;;;;;4975652;28;20056;-78
2022/07/12 11:45:55;;;;;;;4.60;1.98;;;;;;;;;;4993027;28;20093;-77
2022/07/12 11:48:22;;;;;;;4.68;2.13;;;;;;;;;;4993086;28;20091;-77
2022/07/12 11:50:50;;;;;;;3.25;1.90;;;;;;;;;;4993007;28;20034;-76
2022/07/12 11:53:20;;;;;;;3.58;1.75;;;;;;;;;;4992319;28;20505;-77
2022/07/12 11:55:50;;;;;;;7.82;2.10;;;;;;;;;;4992874;28;20057;-76
2022/07/12 11:58:16;;;;;;;;;;;;;;;;;;4993074;28;20072;-76
2022/07/12 12:00:43;;;;;;;3.55;2.03;;;;;;;;;;4993119;28;20361;-75
2022/07/12 12:03:09;;;;;;;5.47;2.17;;;;;;;;;;4992728;28;20034;-77
2022/07/12 12:05:36;;;;;;;4.07;2.13;;;;;;;;;;4975325;28;20034;-79
2022/07/12 12:08:03;;;;;;;5.00;1.85;;;;;;;;;;4992676;28;20041;-82
2022/07/12 12:10:28;;;;;;;8.18;2.28;;;;;;;;;;4974946;28;20030;-78
2022/07/12 12:12:56;;;;;;;3.53;1.90;;;;;;;;;;4992981;28;20434;-76
2022/07/12 12:15:24;;;;;;;3.42;1.90;;;;;;;;;;4993059;28;20561;-75
2022/07/12 12:17:58;;;;;;;4.18;1.85;;;;;;;;;;4993209;28;20110;-78
2022/07/12 12:20:26;;;;;;;3.45;1.70;;;;;;;;;;4993079;28;20077;-75
2022/07/12 12:22:56;;;;;;;6.05;1.73;;;;;;;;;;4992042;28;20422;-75
2022/07/12 12:25:22;;;;;;;;;;;;;;;;;;4992684;28;20430;-75
2022/07/12 12:27:48;;;;;;;3.92;1.88;;;;;;;;;;4992353;28;20321;-76
2022/07/12 12:30:15;;;;;;;3.72;1.90;;;;;;;;;;4992974;28;20041;-75
2022/07/12 12:32:55;;;;;;;4.38;1.95;;;;;;;;;;4992385;28;20030;-75
2022/07/12 12:35:23;;;;;;;6.40;2.00;;;;;;;;;;4991785;28;20041;-75
2022/07/12 12:37:57;;;;;;;4.63;2.10;;;;;;;;;;4995064;28;20113;-75
2022/07/12 12:40:24;;;;;;;5.18;1.80;;;;;;;;;;4994404;28;20074;-76
2022/07/12 12:42:50;;;;;;;4.30;1.92;;;;;;;;;;4995189;28;20034;-75
2022/07/12 12:45:19;;;;;;;3.97;1.70;;;;;;;;;;4992299;28;20026;-76
2022/07/12 12:48:02;;;;;;;4.30;1.95;;;;;;;;;;4992511;28;20031;-76
2022/07/12 12:50:42;;;;;;;7.43;1.90;;;;;;;;;;4991791;28;20554;-76
2022/07/12 12:53:12;;;;;;;6.17;1.90;;;;;;;;;;4992133;28;20033;-76
2022/07/12 12:55:37;;;;;;;;;;;;;;;;;;4991671;28;20015;-76
2022/07/12 12:58:04;;;;;;;5.80;1.90;;;;;;;;;;4975559;28;20363;-76
2022/07/12 13:00:30;;;;;;;6.40;2.17;;;;;;;;;;4993492;28;20270;-76
2022/07/12 13:02:59;;;;;;;6.63;2.08;;;;;;;;;;4993069;28;20026;-76
2022/07/12 13:05:26;;;;;;;4.68;2.00;;;;;;;;;;4991427;28;20026;-75
2022/07/12 13:07:51;;;;;;;6.63;2.10;;;;;;;;;;4991439;28;20046;-76
2022/07/12 13:10:16;;;;;;;2.88;1.90;;;;;;;;;;4993865;28;20023;-75
2022/07/12 13:12:43;;;;;;;4.43;1.85;;;;;;;;;;4991488;28;20033;-75
2022/07/12 13:15:08;;;;;;;4.38;2.00;;;;;;;;;;4994724;28;20585;-76
2022/07/12 13:17:34;;;;;;;3.53;1.85;;;;;;;;;;4992213;28;20102;-77
2022/07/12 13:19:59;;;;;;;3.13;1.80;;;;;;;;;;4995128;28;20030;-76
2022/07/12 13:22:25;;;;;;;3.28;1.80;;;;;;;;;;4990951;28;20738;-77
2022/07/12 13:24:50;;;;;;;5.68;1.90;;;;;;;;;;4991614;28;20105;-80
2022/07/12 13:27:15;;;;;;;3.47;1.70;;;;;;;;;;4991384;28;20434;-77
2022/07/12 13:29:41;;;;;;;5.68;1.88;;;;;;;;;;4993564;28;20410;-77
2022/07/12 13:32:06;;;;;;;4.85;1.70;;;;;;;;;;4978214;28;20394;-77
2022/07/12 13:34:32;;;;;;;4.18;1.85;;;;;;;;;;4984816;28;20034;-77
2022/07/12 13:36:58;;;;;;;4.57;1.65;;;;;;;;;;4990733;28;20069;-77
2022/07/12 13:42:07;;;;;;;6.53;1.50;;;;;;;;;;4978826;28;20544;-77
2022/07/12 13:44:33;;;;;;;3.03;1.40;;;;;;;;;;4976755;28;20022;-77
2022/07/12 13:46:58;;;;;;;4.47;1.50;;;;;;;;;;4991100;28;20026;-76
2022/07/12 13:49:24;;;;;;;4.03;1.70;;;;;;;;;;4993955;28;20024;-77
2022/07/12 13:51:49;;;;;;;5.97;1.70;;;;;;;;;;4996510;28;20426;-77
2022/07/12 13:54:15;;;;;;;3.97;1.48;;;;;;;;;;4995217;28;20339;-77
2022/07/12 13:56:40;;;;;;;5.40;1.67;;;;;;;;;;4992845;28;20019;-77
2022/07/12 13:59:06;;;;;;;4.75;1.65;;;;;;;;;;4996500;28;20046;-81
2022/07/12 14:01:32;;;;;;;2.88;1.50;;;;;;;;;;4982695;28;20036;-80
2022/07/12 14:03:58;;;;;;;2.60;1.30;;;;;;;;;;4984683;28;20030;-79
2022/07/12 14:06:23;;;;;;;2.85;1.50;;;;;;;;;;5002065;28;20057;-80
2022/07/12 14:08:50;;;;;;;2.00;1.25;;;;;;;;;;4992108;28;20058;-79
2022/07/12 14:11:16;;;;;;;2.05;1.15;;;;;;;;;;4983168;28;20030;-78
2022/07/12 14:13:41;;;;;;;7.50;2.15;;;;;;;;;;4996022;28;20037;-77
2022/07/12 14:16:07;;;;;;;2.03;1.40;;;;;;;;;;5000889;28;20029;-77
2022/07/12 14:18:32;;;;;;;4.78;1.50;;;;;;;;;;4996488;28;20538;-76
2022/07/12 14:20:58;;;;;;;14.13;1.90;;;;;;;;;;4999089;28;20026;-75
2022/07/12 14:23:24;;;;;;;2.72;1.58;;;;;;;;;;4990306;28;20133;-76
2022/07/12 14:25:49;;;;;;;5.57;1.40;;;;;;;;;;4968558;28;20023;-75
2022/07/12 14:28:14;;;;;;;4.60;1.33;;;;;;;;;;5000340;28;20022;-77
2022/07/12 14:30:40;;;;;;;3.85;1.30;;;;;;;;;;4983241;28;20169;-77
2022/07/12 14:33:05;;;;;;;3.80;1.10;;;;;;;;;;4997522;28;20345;-77
2022/07/12 14:35:31;;;;;;;2.58;1.20;;;;;;;;;;5000802;28;20018;-78
2022/07/12 14:37:56;;;;;;;4.38;1.40;;;;;;;;;;5001573;28;20022;-75
2022/07/12 14:40:22;;;;;;;6.63;1.40;;;;;;;;;;5001677;28;20030;-75
2022/07/12 14:42:47;;;;;;;4.20;1.20;;;;;;;;;;5001640;28;20034;-75
2022/07/12 14:45:14;;;;;;;5.55;1.38;;;;;;;;;;5001217;28;20014;-75
2022/07/12 14:47:39;;;;;;;5.32;1.33;;;;;;;;;;5001629;28;20226;-75
2022/07/12 14:50:07;;;;;;;4.43;1.40;;;;;;;;;;5001167;28;20019;-75
2022/07/12 14:52:32;;;;;;;6.38;1.45;;;;;;;;;;5001762;28;20064;-75